Time;durP1;ratioP1;P1;durP2;ratioP2;P2;SDS_P1;SDS_P2;PMS_P1;PMS_P2;Temp;Humidity;BMP_temperature;BMP_pressure;BME280_temperature;BME280_humidity;BME280_pressure;Samples;Min_cycle;Max_cycle;Signal;HPM_P1;HPM_P2
2022/01/19 00:01:17;;;;;;;18.10;7.75;;;;;;;4.02;80.59;102780.53;5079407;28;20044;-71
2022/01/19 00:03:44;;;;;;;16.55;7.65;;;;;;;3.99;80.86;102780.66;5094775;28;20044;-71
2022/01/19 00:06:11;;;;;;;17.95;7.63;;;;;;;4.07;80.72;102791.69;5095186;28;20040;-71
2022/01/19 00:08:38;;;;;;;18.67;7.70;;;;;;;4.06;80.71;102787.38;5094761;28;20044;-71
2022/01/19 00:11:05;;;;;;;17.38;7.30;;;;;;;4.03;80.96;102785.72;5093333;28;20558;-71
2022/01/19 00:13:32;;;;;;;20.73;7.85;;;;;;;3.99;80.56;102785.91;5092948;28;20047;-71
2022/01/19 00:15:59;;;;;;;15.88;7.35;;;;;;;3.99;80.34;102780.66;5093398;28;20044;-72
2022/01/19 00:18:26;;;;;;;16.85;7.28;;;;;;;4.03;80.89;102774.38;5076707;28;20062;-71
2022/01/19 00:20:54;;;;;;;16.42;7.70;;;;;;;3.97;80.87;102772.84;5092772;28;20488;-71
2022/01/19 00:23:22;;;;;;;15.77;7.22;;;;;;;3.97;80.97;102764.13;5076231;28;20041;-71
2022/01/19 00:25:51;;;;;;;19.15;7.22;;;;;;;3.95;80.50;102745.78;5092165;28;20040;-71
2022/01/19 00:28:18;;;;;;;17.20;7.93;;;;;;;3.84;80.63;102716.50;5092954;28;20048;-71
2022/01/19 00:30:46;;;;;;;21.13;7.55;;;;;;;3.93;80.84;102697.72;5076259;28;20043;-71
2022/01/19 00:33:13;;;;;;;17.10;7.68;;;;;;;3.89;80.92;102679.53;5091216;28;20377;-72
2022/01/19 00:35:41;;;;;;;19.63;8.35;;;;;;;3.95;80.53;102672.25;5094013;28;20047;-71
2022/01/19 00:38:09;;;;;;;15.85;7.47;;;;;;;3.91;80.50;102660.19;5088881;28;20372;-72
2022/01/19 00:40:38;;;;;;;13.70;7.57;;;;;;;3.84;80.63;102658.72;5086712;28;20523;-71
2022/01/19 00:43:06;;;;;;;17.40;7.80;;;;;;;3.80;80.88;102665.00;5100175;28;20037;-71
2022/01/19 00:45:34;;;;;;;15.98;7.85;;;;;;;3.74;80.47;102673.97;5094619;28;20403;-71
2022/01/19 00:48:08;;;;;;;14.20;7.88;;;;;;;3.74;81.08;102675.75;5096636;28;20491;-70
2022/01/19 00:50:35;;;;;;;19.83;8.80;;;;;;;3.70;81.46;102679.44;5111995;28;20044;-71
2022/01/19 00:53:01;;;;;;;15.55;7.20;;;;;;;3.70;81.46;102679.44;5078528;28;20101;-71
2022/01/19 00:55:28;;;;;;;17.48;8.27;;;;;;;3.57;81.36;102677.28;5103588;28;20046;-71
2022/01/19 00:57:55;;;;;;;16.00;7.82;;;;;;;3.62;82.09;102693.72;5092016;28;20106;-71
2022/01/19 01:00:26;;;;;;;16.33;7.70;;;;;;;3.59;81.75;102701.72;5092625;28;20052;-71
2022/01/19 01:02:53;;;;;;;14.10;7.93;;;;;;;3.53;82.17;102701.97;5093380;28;20055;-71
2022/01/19 01:05:22;;;;;;;22.58;9.25;;;;;;;3.46;82.22;102709.22;5091783;28;20044;-71
2022/01/19 01:07:49;;;;;;;14.80;8.20;;;;;;;3.44;82.15;102708.41;5059618;28;20052;-71
2022/01/19 01:10:17;;;;;;;18.38;7.82;;;;;;;3.59;82.06;102699.09;5075892;28;20040;-71
2022/01/19 01:12:48;;;;;;;16.00;8.55;;;;;;;3.59;82.18;102706.09;5065488;28;20048;-71
2022/01/19 01:15:27;;;;;;;16.73;8.18;;;;;;;3.59;82.23;102693.84;5092280;28;20483;-71
2022/01/19 01:20:37;;;;;;;14.75;8.05;;;;;;;3.70;81.32;102695.19;5092024;28;20496;-71
2022/01/19 01:23:06;;;;;;;17.75;8.82;;;;;;;3.67;81.69;102690.06;5091721;28;20040;-70
2022/01/19 01:25:33;;;;;;;14.65;7.47;;;;;;;3.58;81.82;102692.09;5072269;28;20060;-71
2022/01/19 01:27:59;;;;;;;18.10;8.43;;;;;;;3.62;81.54;102695.47;5053592;28;20446;-71
2022/01/19 01:30:27;;;;;;;16.63;8.23;;;;;;;3.59;81.75;102695.63;5087054;28;20069;-71
2022/01/19 01:32:55;;;;;;;16.83;8.30;;;;;;;3.54;81.99;102680.03;5076585;28;20134;-71
2022/01/19 01:35:22;;;;;;;17.17;8.70;;;;;;;3.52;81.62;102663.50;5091648;28;20077;-71
2022/01/19 01:37:49;;;;;;;16.92;7.97;;;;;;;3.49;81.91;102650.50;5091840;28;20055;-71
2022/01/19 01:40:16;;;;;;;20.60;8.50;;;;;;;3.42;81.71;102652.53;5075140;28;20119;-71
2022/01/19 01:42:46;;;;;;;14.82;7.93;;;;;;;3.44;81.97;102653.31;5092315;28;20543;-71
2022/01/19 01:45:17;;;;;;;16.65;7.75;;;;;;;3.58;81.13;102649.28;5059047;28;20044;-71
2022/01/19 01:47:50;;;;;;;14.88;7.18;;;;;;;3.53;81.42;102662.59;5085345;28;20072;-71
2022/01/19 01:53:35;;;;;;;17.67;7.80;;;;;;;3.45;81.88;102667.28;5091620;28;20040;-71
2022/01/19 01:55:57;;;;;;;15.90;8.05;;;;;;;3.51;81.35;102674.94;5092026;28;20135;-71
2022/01/19 01:58:25;;;;;;;18.25;8.45;;;;;;;3.46;81.71;102671.63;5091556;28;20040;-71
2022/01/19 02:01:12;;;;;;;18.33;8.43;;;;;;;3.58;81.52;102676.38;5077629;28;20051;-71
2022/01/19 02:03:40;;;;;;;17.75;8.45;;;;;;;3.58;81.54;102663.25;5091565;28;20036;-71
2022/01/19 02:09:13;;;;;;;16.05;8.18;;;;;;;3.55;82.44;102660.75;5096773;28;20055;-71
2022/01/19 02:23:21;;;;;;;14.98;7.72;;;;;;;3.76;80.56;102618.78;5084900;28;20044;-71
2022/01/19 02:25:52;;;;;;;16.85;8.88;;;;;;;3.89;81.03;102609.47;5100306;28;20449;-71
2022/01/19 02:36:52;;;;;;;19.45;8.15;;;;;;;3.91;81.15;102572.66;5109118;28;20043;-71
2022/01/19 02:42:12;;;;;;;16.25;8.35;;;;;;;3.91;80.29;102554.28;5110940;28;20036;-71
2022/01/19 02:49:48;;;;;;;15.43;9.27;;;;;;;3.74;80.75;102539.25;5130085;28;20051;-72
2022/01/19 02:52:15;;;;;;;15.82;9.05;;;;;;;3.83;81.30;102526.56;5130790;27;20043;-72
2022/01/19 02:54:42;;;;;;;15.55;9.65;;;;;;;3.93;80.89;102524.41;5130908;27;20062;-70
2022/01/19 02:57:12;;;;;;;20.10;10.45;;;;;;;3.96;80.46;102533.94;5113443;27;20040;-71
2022/01/19 03:06:13;;;;;;;17.38;10.27;;;;;;;3.92;80.87;102525.31;5110313;28;20101;-71
2022/01/19 03:10:50;;;;;;;19.15;11.60;;;;;;;3.79;81.20;102484.78;5101836;28;20040;-71
2022/01/19 03:13:16;;;;;;;23.52;12.50;;;;;;;3.70;81.42;102477.31;5091715;28;20052;-71
2022/01/19 03:15:43;;;;;;;19.38;11.45;;;;;;;3.68;80.94;102472.13;5088715;28;20040;-70
2022/01/19 03:18:10;;;;;;;18.38;11.73;;;;;;;3.71;80.80;102479.00;5121607;28;20047;-70
2022/01/19 03:20:38;;;;;;;18.52;11.45;;;;;;;3.76;80.91;102479.66;5129213;28;20406;-70
2022/01/19 03:23:16;;;;;;;21.40;12.60;;;;;;;3.75;81.04;102481.44;5129139;28;20047;-71
2022/01/19 03:25:43;;;;;;;22.52;12.75;;;;;;;3.71;81.41;102477.25;5126941;28;20039;-70
2022/01/19 03:28:10;;;;;;;21.40;13.27;;;;;;;3.54;81.47;102488.47;5106039;28;20051;-70
2022/01/19 03:30:36;;;;;;;25.80;13.95;;;;;;;3.74;81.86;102486.75;5108309;28;20040;-70
2022/01/19 03:33:03;;;;;;;22.60;13.77;;;;;;;3.80;81.56;102484.72;5087496;28;20397;-71
2022/01/19 03:35:31;;;;;;;21.45;13.90;;;;;;;3.83;81.00;102474.06;5088176;28;20523;-70
2022/01/19 03:37:57;;;;;;;22.35;13.48;;;;;;;3.85;81.38;102482.72;5088120;28;20093;-70
2022/01/19 03:40:25;;;;;;;23.55;13.15;;;;;;;4.03;80.40;102474.97;5090006;28;20115;-70
2022/01/19 03:42:52;;;;;;;22.15;12.82;;;;;;;4.09;80.44;102468.56;5109236;28;20051;-70
2022/01/19 03:45:32;;;;;;;22.92;13.20;;;;;;;4.11;79.78;102459.72;5108947;28;20055;-70
2022/01/19 03:48:19;;;;;;;26.13;13.02;;;;;;;4.20;79.04;102461.91;5124617;28;20043;-70
2022/01/19 03:50:46;;;;;;;23.23;13.32;;;;;;;4.26;78.32;102462.53;5100144;28;20104;-70
2022/01/19 03:53:13;;;;;;;26.90;14.43;;;;;;;4.20;79.53;102450.53;5108194;28;20035;-71
2022/01/19 03:55:40;;;;;;;24.80;14.10;;;;;;;4.19;79.28;102454.09;5089937;28;20044;-70
2022/01/19 03:58:07;;;;;;;26.45;14.23;;;;;;;4.21;79.77;102444.38;5098395;28;20067;-70
2022/01/19 04:00:40;;;;;;;26.42;14.02;;;;;;;4.20;80.30;102438.28;5095620;28;20051;-70
2022/01/19 04:03:09;;;;;;;26.08;14.23;;;;;;;4.18;79.73;102444.50;5094485;28;20078;-70
2022/01/19 04:05:43;;;;;;;22.33;13.43;;;;;;;4.17;78.90;102440.19;5093532;28;20081;-70
2022/01/19 04:08:09;;;;;;;23.63;13.05;;;;;;;4.15;79.07;102442.03;5094154;28;20444;-70
2022/01/19 04:10:39;;;;;;;22.52;13.80;;;;;;;4.14;79.32;102443.78;5093508;28;20040;-70
2022/01/19 04:15:52;;;;;;;23.73;13.85;;;;;;;4.22;79.11;102448.69;5094197;28;20050;-70
2022/01/19 04:18:19;;;;;;;24.00;14.93;;;;;;;4.18;79.19;102447.13;5078702;28;20073;-70
2022/01/19 04:20:50;;;;;;;22.38;14.18;;;;;;;4.29;79.43;102449.25;5065200;28;20515;-70
2022/01/19 04:23:19;;;;;;;;;;;;;;;4.24;79.29;102444.25;5094912;28;20047;-71
2022/01/19 04:25:46;;;;;;;22.73;13.32;;;;;;;4.31;78.67;102443.03;5093801;28;19931;-70
2022/01/19 04:28:14;;;;;;;23.40;14.07;;;;;;;4.23;78.97;102448.63;5094127;28;20082;-70
2022/01/19 04:30:45;;;;;;;22.75;14.00;;;;;;;4.02;79.62;102447.84;5092082;28;20052;-71
2022/01/19 04:33:17;;;;;;;21.23;13.15;;;;;;;3.96;80.12;102447.25;5094937;28;20451;-70
2022/01/19 04:35:49;;;;;;;23.70;13.98;;;;;;;3.91;80.16;102439.63;5094955;28;20044;-70
2022/01/19 04:39:07;;;;;;;21.98;13.80;;;;;;;3.85;80.56;102439.88;5094886;28;20101;-70
2022/01/19 04:47:15;;;;;;;23.00;13.45;;;;;;;4.08;79.78;102432.75;5098654;28;20407;-70
2022/01/19 05:04:00;;;;;;;23.95;12.77;;;;;;;4.08;79.50;102409.94;5079011;28;20038;-70
2022/01/19 05:06:40;;;;;;;20.05;12.57;;;;;;;4.14;79.86;102407.03;5078762;28;20435;-70
2022/01/19 05:09:12;;;;;;;23.23;13.32;;;;;;;4.22;79.22;102412.78;5092986;28;20039;-70
2022/01/19 05:14:25;;;;;;;19.27;11.73;;;;;;;4.18;79.31;102395.47;5093251;28;20040;-70
2022/01/19 05:16:52;;;;;;;22.08;12.60;;;;;;;4.07;79.12;102391.63;5081488;28;20040;-70
2022/01/19 05:19:19;;;;;;;22.42;12.75;;;;;;;4.25;79.42;102389.91;5093075;28;20043;-70
2022/01/19 05:21:46;;;;;;;22.38;12.38;;;;;;;4.10;78.83;102376.56;5092739;28;20115;-70
2022/01/19 05:24:15;;;;;;;19.73;11.75;;;;;;;4.06;78.79;102372.41;5092597;28;20097;-70
2022/01/19 05:26:56;;;;;;;19.73;11.25;;;;;;;4.11;79.06;102373.03;5077455;28;20400;-70
2022/01/19 05:29:31;;;;;;;20.10;11.75;;;;;;;4.10;78.78;102375.72;5088877;28;20068;-70
2022/01/19 05:31:57;;;;;;;21.42;11.85;;;;;;;4.06;78.97;102374.16;5089801;28;20381;-70
2022/01/19 05:34:25;;;;;;;20.85;11.35;;;;;;;3.89;79.24;102372.31;5091505;28;20123;-70
2022/01/19 05:37:03;;;;;;;20.38;11.82;;;;;;;3.93;79.90;102360.75;5093334;28;20036;-70
2022/01/19 05:39:42;;;;;;;17.50;10.25;;;;;;;3.95;79.03;102364.19;5087124;28;20048;-70
2022/01/19 05:42:16;;;;;;;19.60;11.52;;;;;;;3.98;78.89;102357.00;5072007;28;20553;-70
2022/01/19 05:44:46;;;;;;;19.42;10.80;;;;;;;3.88;79.04;102352.25;5072299;28;20516;-70
2022/01/19 05:47:16;;;;;;;18.33;9.57;;;;;;;3.95;78.49;102351.91;5101804;28;20067;-70
2022/01/19 05:49:44;;;;;;;18.95;9.95;;;;;;;3.97;78.94;102344.78;5111437;28;20044;-70
2022/01/19 05:52:13;;;;;;;17.10;9.73;;;;;;;3.89;78.84;102346.06;5093315;28;20071;-70
2022/01/19 05:54:40;;;;;;;17.45;10.20;;;;;;;3.92;79.11;102335.44;5092020;28;20405;-70
2022/01/19 05:57:08;;;;;;;16.45;9.65;;;;;;;4.02;78.65;102328.81;5092770;28;20044;-70
2022/01/19 05:59:42;;;;;;;16.52;10.13;;;;;;;3.97;79.16;102339.53;5076418;28;20139;-71
2022/01/19 06:02:08;;;;;;;18.50;9.60;;;;;;;4.03;78.61;102330.50;5093043;28;20076;-70
2022/01/19 06:04:35;;;;;;;18.38;10.05;;;;;;;3.94;79.29;102330.94;5037463;28;20416;-71
2022/01/19 06:07:28;;;;;;;20.50;9.95;;;;;;;4.03;78.68;102323.47;5087621;28;20062;-70
2022/01/19 06:10:04;;;;;;;19.45;11.10;;;;;;;3.90;79.80;102318.91;5092925;28;20105;-70
2022/01/19 06:12:41;;;;;;;19.30;11.63;;;;;;;4.00;79.59;102312.25;5077004;28;20052;-71
2022/01/19 06:15:08;;;;;;;23.55;12.18;;;;;;;4.01;79.60;102306.09;5058897;28;20054;-71
2022/01/19 06:17:35;;;;;;;18.55;10.55;;;;;;;3.97;79.42;102302.78;5104220;28;20036;-71
2022/01/19 06:20:04;;;;;;;18.83;11.27;;;;;;;3.86;79.92;102310.31;5113159;28;20054;-71
2022/01/19 06:22:31;;;;;;;21.23;11.73;;;;;;;3.94;79.74;102297.66;5079317;28;20051;-71
2022/01/19 06:24:58;;;;;;;18.85;11.00;;;;;;;3.96;79.97;102303.69;5092952;28;20071;-71
2022/01/19 06:27:26;;;;;;;22.40;12.13;;;;;;;3.92;80.17;102286.38;5074721;28;20036;-71
2022/01/19 06:29:52;;;;;;;19.98;10.85;;;;;;;3.88;79.98;102289.25;5091702;28;20036;-70
2022/01/19 06:32:19;;;;;;;20.23;12.30;;;;;;;3.81;80.05;102288.66;5075080;28;20056;-71
2022/01/19 06:34:46;;;;;;;21.80;12.30;;;;;;;3.88;81.11;102284.00;5087629;28;20042;-71
2022/01/19 06:37:23;;;;;;;26.20;11.68;;;;;;;3.93;80.32;102298.59;5106240;28;20118;-71
2022/01/19 06:39:59;;;;;;;21.08;11.65;;;;;;;3.84;80.98;102299.88;5079648;28;20388;-71
2022/01/19 06:42:29;;;;;;;24.90;12.77;;;;;;;3.91;79.61;102287.31;5093723;28;20069;-70
2022/01/19 06:44:55;;;;;;;22.98;12.57;;;;;;;3.77;80.24;102295.00;5074610;28;20040;-71
2022/01/19 06:47:22;;;;;;;24.05;13.32;;;;;;;3.80;80.41;102302.69;5102146;28;20147;-71
2022/01/19 06:49:49;;;;;;;26.05;13.48;;;;;;;3.80;80.91;102294.84;5110470;28;20043;-71
2022/01/19 06:52:24;;;;;;;23.63;12.43;;;;;;;3.99;79.65;102297.47;5091423;28;20052;-71
2022/01/19 06:54:51;;;;;;;24.48;13.52;;;;;;;3.89;80.15;102297.03;5092095;28;20520;-71
2022/01/19 06:57:18;;;;;;;24.92;13.85;;;;;;;3.96;80.13;102294.97;5090839;28;20510;-71
2022/01/19 07:00:06;;;;;;;22.58;12.38;;;;;;;4.10;79.40;102299.56;5091128;28;20044;-71
2022/01/19 07:02:53;;;;;;;24.77;12.38;;;;;;;3.99;79.46;102286.94;5092979;28;20105;-71
2022/01/19 07:05:40;;;;;;;29.13;13.40;;;;;;;3.90;80.18;102293.47;5090966;28;20036;-71
2022/01/19 07:08:27;;;;;;;22.67;12.18;;;;;;;4.07;79.42;102300.53;5092535;28;20066;-71
2022/01/19 07:10:54;;;;;;;27.33;12.50;;;;;;;3.87;79.86;102308.53;5091446;28;20040;-71
2022/01/19 07:13:21;;;;;;;23.90;12.38;;;;;;;3.82;80.32;102303.47;5091110;28;20044;-71
2022/01/19 07:15:49;;;;;;;26.63;13.18;;;;;;;3.74;80.30;102301.22;5081764;28;20056;-72
2022/01/19 07:18:17;;;;;;;29.13;13.40;;;;;;;3.91;79.68;102295.19;5108826;28;20096;-71
2022/01/19 07:20:44;;;;;;;33.85;14.20;;;;;;;3.88;79.77;102286.63;5112857;28;20110;-71
2022/01/19 07:23:11;;;;;;;26.63;13.80;;;;;;;4.03;79.22;102291.13;5056310;28;20047;-71
2022/01/19 07:25:37;;;;;;;29.83;12.95;;;;;;;3.97;80.26;102288.81;5091266;28;20044;-72
2022/01/19 07:28:08;;;;;;;29.83;13.73;;;;;;;3.97;79.92;102291.44;5090651;28;20091;-72
2022/01/19 07:30:35;;;;;;;24.98;13.63;;;;;;;4.11;78.74;102281.13;5086381;28;20052;-72
2022/01/19 07:33:03;;;;;;;25.17;12.52;;;;;;;4.07;79.30;102276.06;5076450;28;20105;-71
2022/01/19 07:35:30;;;;;;;28.38;13.82;;;;;;;4.03;78.86;102267.47;5092934;28;20050;-72
2022/01/19 07:37:57;;;;;;;23.33;12.70;;;;;;;4.18;78.14;102264.13;5093546;28;20040;-72
2022/01/19 07:40:24;;;;;;;26.77;13.25;;;;;;;4.21;78.38;102253.44;5094929;28;20040;-72
2022/01/19 07:42:52;;;;;;;26.88;13.70;;;;;;;4.21;78.33;102256.06;5095389;28;20048;-72
2022/01/19 07:45:38;;;;;;;26.52;13.32;;;;;;;4.29;78.07;102260.09;5095925;28;20072;-72
2022/01/19 07:48:25;;;;;;;25.63;14.68;;;;;;;3.99;79.23;102251.03;5112951;28;20051;-72
2022/01/19 07:51:12;;;;;;;25.02;13.75;;;;;;;4.17;77.77;102244.03;5114064;28;20059;-71
2022/01/19 07:53:44;;;;;;;25.13;14.93;;;;;;;4.22;76.88;102249.91;5054966;28;20464;-71
2022/01/19 07:56:32;;;;;;;23.77;13.52;;;;;;;4.33;77.00;102238.88;5088936;28;20039;-71
2022/01/19 07:59:09;;;;;;;25.83;14.65;;;;;;;4.26;76.90;102240.09;5088218;28;20089;-71
2022/01/19 08:01:56;;;;;;;26.42;14.05;;;;;;;4.14;77.40;102233.66;5089119;28;20047;-73
2022/01/19 08:04:43;;;;;;;26.67;14.20;;;;;;;3.96;78.81;102224.06;5085364;28;20068;-69
2022/01/19 08:07:12;;;;;;;22.65;13.02;;;;;;;4.03;77.59;102231.56;5093385;28;20044;-68
2022/01/19 08:09:40;;;;;;;24.63;12.32;;;;;;;4.15;77.19;102224.88;5086677;28;20047;-68
2022/01/19 08:12:08;;;;;;;23.27;14.38;;;;;;;4.01;76.63;102220.28;5083910;28;20048;-68
2022/01/19 08:14:40;;;;;;;26.70;13.77;;;;;;;4.09;76.90;102224.31;5086923;28;20040;-68
2022/01/19 08:17:07;;;;;;;25.38;14.35;;;;;;;4.10;77.00;102221.63;5083110;28;20040;-68
2022/01/19 08:19:37;;;;;;;28.03;13.70;;;;;;;4.26;75.85;102232.22;5090624;28;20492;-68
2022/01/19 08:22:04;;;;;;;22.95;13.43;;;;;;;4.23;75.90;102222.69;5094790;28;20032;-68
2022/01/19 08:24:32;;;;;;;22.65;12.68;;;;;;;4.34;75.60;102223.94;5090148;28;20051;-68
2022/01/19 08:27:03;;;;;;;23.30;13.75;;;;;;;4.19;76.22;102218.53;5068761;28;20036;-68
2022/01/19 08:29:37;;;;;;;26.80;14.07;;;;;;;4.28;75.86;102230.38;5090737;28;20229;-69
2022/01/19 08:32:11;;;;;;;22.85;13.35;;;;;;;4.50;75.13;102227.50;5086917;28;20071;-68
2022/01/19 08:35:14;;;;;;;22.95;12.80;;;;;;;4.43;74.98;102228.72;5088280;28;20040;-71
2022/01/19 08:38:01;;;;;;;25.63;14.07;;;;;;;4.28;75.16;102219.84;5088630;28;20047;-70
2022/01/19 08:40:36;;;;;;;26.77;13.68;;;;;;;4.16;75.30;102223.94;5089817;28;20036;-70
2022/01/19 08:43:14;;;;;;;23.27;13.52;;;;;;;4.12;75.18;102224.16;5087783;28;20053;-70
2022/01/19 08:45:41;;;;;;;26.05;13.65;;;;;;;4.15;75.55;102229.28;5070788;28;20049;-70
2022/01/19 08:48:08;;;;;;;24.38;13.57;;;;;;;4.08;75.45;102230.50;5077879;28;20044;-71
2022/01/19 08:50:46;;;;;;;22.48;13.45;;;;;;;4.05;75.98;102236.75;5090776;28;20072;-70
2022/01/19 08:53:24;;;;;;;23.15;14.05;;;;;;;4.09;76.51;102232.19;5061070;28;20032;-70
2022/01/19 08:56:07;;;;;;;24.67;14.48;;;;;;;4.30;75.27;102230.28;5086816;28;20048;-71
2022/01/19 08:58:34;;;;;;;26.15;13.68;;;;;;;4.28;75.61;102229.53;5090219;28;20044;-71
2022/01/19 09:01:01;;;;;;;28.63;13.75;;;;;;;4.35;74.88;102229.13;5089836;28;20090;-71
2022/01/19 09:03:28;;;;;;;23.70;13.00;;;;;;;4.25;76.13;102225.25;5057927;28;20044;-71
2022/01/19 09:05:55;;;;;;;25.73;14.45;;;;;;;4.32;75.14;102220.56;5090910;28;20063;-70
2022/01/19 09:08:22;;;;;;;21.80;13.20;;;;;;;4.35;74.91;102212.53;5089316;28;20067;-70
2022/01/19 09:10:52;;;;;;;25.58;14.02;;;;;;;4.32;74.76;102205.63;5099360;28;20044;-70
2022/01/19 09:13:19;;;;;;;23.30;13.00;;;;;;;4.29;75.34;102191.78;5088159;28;20043;-70
2022/01/19 09:15:46;;;;;;;22.95;13.68;;;;;;;4.25;75.21;102188.47;5088228;28;20447;-70
2022/01/19 09:18:13;;;;;;;23.98;12.75;;;;;;;4.33;74.54;102188.94;5091885;28;20039;-70
2022/01/19 09:20:39;;;;;;;24.35;14.63;;;;;;;4.30;75.40;102180.38;5085919;28;20391;-70
2022/01/19 09:23:06;;;;;;;24.42;13.18;;;;;;;4.18;75.33;102173.94;5088858;28;20052;-71
2022/01/19 09:25:33;;;;;;;27.83;14.05;;;;;;;4.25;75.17;102180.59;5090975;28;20044;-72
2022/01/19 09:28:00;;;;;;;31.48;13.55;;;;;;;4.31;75.28;102179.44;5073373;28;20059;-71
2022/01/19 09:30:27;;;;;;;23.50;13.57;;;;;;;4.39;74.88;102180.75;5089904;28;20043;-71
2022/01/19 09:33:05;;;;;;;25.73;14.73;;;;;;;4.33;75.57;102183.69;5085185;28;20040;-71
2022/01/19 09:35:50;;;;;;;25.30;13.77;;;;;;;4.31;75.99;102176.81;5084299;28;20098;-72
2022/01/19 09:38:21;;;;;;;24.13;13.25;;;;;;;4.45;74.99;102168.22;5089822;28;20055;-71
2022/01/19 09:40:48;;;;;;;26.80;15.52;;;;;;;4.40;75.10;102163.19;5071746;28;20123;-72
2022/01/19 09:43:17;;;;;;;25.33;13.68;;;;;;;4.49;74.15;102164.50;5083340;28;20075;-73
2022/01/19 09:45:44;;;;;;;24.90;14.13;;;;;;;4.59;74.18;102161.31;5080666;28;20044;-70
2022/01/19 09:48:11;;;;;;;26.08;14.57;;;;;;;4.43;75.58;102158.63;5101901;28;20048;-70
2022/01/19 09:50:38;;;;;;;23.58;13.95;;;;;;;4.36;74.47;102153.78;5077979;28;20041;-70
2022/01/19 09:53:07;;;;;;;37.10;14.23;;;;;;;4.43;75.65;102147.28;5069938;28;20040;-70
2022/01/19 09:55:35;;;;;;;23.17;14.38;;;;;;;4.43;75.15;102134.97;5090653;28;20044;-71
2022/01/19 09:58:02;;;;;;;25.02;13.75;;;;;;;4.33;74.81;102146.03;5081560;28;20851;-71
2022/01/19 10:00:29;;;;;;;22.88;14.63;;;;;;;4.31;75.61;102137.41;5086606;28;20068;-71
2022/01/19 10:03:19;;;;;;;28.20;13.80;;;;;;;4.53;75.02;102139.75;5079816;28;20459;-71
2022/01/19 10:06:07;;;;;;;26.00;13.68;;;;;;;4.53;75.32;102140.63;5087826;28;20032;-71
2022/01/19 10:08:44;;;;;;;24.83;14.10;;;;;;;4.54;75.56;102133.56;5090401;28;20495;-71
2022/01/19 10:11:19;;;;;;;25.65;14.18;;;;;;;4.50;74.54;102125.00;5074813;28;20070;-71
2022/01/19 10:16:59;;;;;;;23.95;14.73;;;;;;;4.50;74.03;102121.53;5072224;28;20558;-67
2022/01/19 10:19:29;;;;;;;32.38;15.07;;;;;;;4.51;74.67;102113.56;5062818;28;20408;-66
2022/01/19 10:22:17;;;;;;;26.35;15.27;;;;;;;4.49;75.15;102110.16;5059510;28;20044;-66
2022/01/19 10:25:04;;;;;;;24.38;15.27;;;;;;;4.49;74.22;102093.53;5068517;28;20086;-67
2022/01/19 10:27:39;;;;;;;31.13;14.98;;;;;;;4.45;74.37;102092.84;5084277;28;20032;-67
2022/01/19 10:32:50;;;;;;;26.70;15.77;;;;;;;4.54;74.85;102087.09;5050320;27;20125;-68
2022/01/19 10:35:31;;;;;;;28.13;15.70;;;;;;;4.52;74.06;102085.50;5056242;28;20044;-68
2022/01/19 10:38:17;;;;;;;26.00;15.73;;;;;;;4.43;74.63;102079.78;5013753;28;20515;-68
2022/01/19 10:41:04;;;;;;;28.10;15.27;;;;;;;4.45;74.66;102068.38;5049697;28;20044;-69
2022/01/19 10:46:29;;;;;;;25.55;15.05;;;;;;;4.51;74.99;102058.38;5126730;27;20349;-67
2022/01/19 10:49:05;;;;;;;24.58;15.43;;;;;;;4.57;73.78;102052.78;5125435;28;20130;-67
2022/01/19 10:51:36;;;;;;;27.77;15.95;;;;;;;4.49;73.68;102064.63;5122674;28;20050;-67
2022/01/19 10:54:22;;;;;;;28.65;15.43;;;;;;;4.51;74.24;102068.91;5121065;28;20085;-67
2022/01/19 10:56:54;;;;;;;24.55;14.73;;;;;;;4.43;74.46;102066.66;5127615;27;20510;-67
2022/01/19 10:59:27;;;;;;;26.27;15.55;;;;;;;4.40;74.91;102058.97;5126797;28;20129;-67
2022/01/19 11:01:59;;;;;;;26.20;14.50;;;;;;;4.49;73.83;102054.13;5124407;27;20041;-67
2022/01/19 11:04:31;;;;;;;25.92;15.27;;;;;;;4.35;74.47;102041.75;5108068;28;20126;-67
2022/01/19 11:07:04;;;;;;;24.23;14.10;;;;;;;4.27;74.36;102038.66;5120616;28;20042;-68
2022/01/19 11:09:43;;;;;;;28.55;15.00;;;;;;;4.39;74.62;102041.47;5141768;27;20491;-69
2022/01/19 11:12:14;;;;;;;23.27;12.60;;;;;;;4.27;74.21;102042.13;5127062;28;20047;-69
2022/01/19 11:14:41;;;;;;;26.10;15.30;;;;;;;4.38;74.50;102025.78;5122042;28;20043;-69
2022/01/19 11:17:18;;;;;;;27.15;15.13;;;;;;;4.54;74.30;102028.44;5109518;28;20050;-69
2022/01/19 11:19:45;;;;;;;32.95;15.98;;;;;;;4.46;74.05;102021.00;5121705;28;20061;-69
2022/01/19 11:22:21;;;;;;;31.73;15.40;;;;;;;4.45;74.18;102013.19;5126829;27;20031;-69
2022/01/19 11:27:42;;;;;;;25.50;15.30;;;;;;;4.55;73.70;102003.88;5113014;27;20405;-69
2022/01/19 11:30:17;;;;;;;25.33;15.05;;;;;;;4.55;74.03;102002.09;5087156;28;20797;-67
2022/01/19 11:33:04;;;;;;;26.08;15.73;;;;;;;4.60;73.90;102001.81;5120868;28;20051;-67
2022/01/19 11:35:34;;;;;;;26.95;15.68;;;;;;;4.61;73.96;101998.28;5089045;28;20142;-67
2022/01/19 11:38:38;;;;;;;27.55;16.27;;;;;;;4.68;73.95;101986.50;5084626;28;20052;-68
2022/01/19 11:43:51;;;;;;;25.45;15.43;;;;;;;4.69;73.16;101980.28;5160465;27;20122;-67
2022/01/19 11:46:40;;;;;;;30.40;16.63;;;;;;;4.58;74.00;101972.16;5129738;27;20100;-67
2022/01/19 11:49:10;;;;;;;23.98;14.95;;;;;;;4.70;73.78;101957.50;5146090;27;20041;-67
2022/01/19 11:51:41;;;;;;;30.50;14.77;;;;;;;4.78;73.07;101952.63;5131158;27;20035;-67
2022/01/19 11:54:21;;;;;;;28.98;16.92;;;;;;;4.75;73.42;101956.28;5110543;28;20508;-68
2022/01/19 11:57:07;;;;;;;27.85;16.55;;;;;;;4.78;73.33;101945.63;5127381;27;20051;-67
2022/01/19 11:59:56;;;;;;;31.40;16.50;;;;;;;4.88;73.68;101942.47;5149188;27;20045;-67
2022/01/19 12:08:01;;;;;;;35.22;23.20;;;;;;;4.45;75.34;101924.69;5042297;28;20871;-68
2022/01/19 12:13:41;;;;;;;31.20;16.92;;;;;;;4.52;73.85;101920.78;5129842;27;20357;-67
2022/01/19 12:16:48;;;;;;;34.40;16.27;;;;;;;4.66;74.08;101917.38;5103053;28;20431;-67
2022/01/19 12:19:20;;;;;;;30.45;16.13;;;;;;;4.70;73.24;101908.38;5107694;28;20500;-68
2022/01/19 12:21:51;;;;;;;29.92;16.83;;;;;;;4.71;73.26;101906.59;5108677;28;20585;-68
2022/01/19 12:24:32;;;;;;;29.15;16.05;;;;;;;4.75;73.39;101897.63;5107214;28;20544;-68
2022/01/19 12:37:52;;;;;;;25.83;16.38;;;;;;;4.55;74.16;101894.34;5106574;27;20408;-68
2022/01/19 12:42:59;;;;;;;27.33;17.10;;;;;;;4.72;74.67;101882.00;5120885;27;20407;-68
2022/01/19 12:45:29;;;;;;;28.80;17.13;;;;;;;4.69;74.36;101885.66;5106829;28;20044;-68
2022/01/19 12:47:58;;;;;;;42.50;23.08;;;;;;;4.69;74.32;101882.19;5109663;28;20500;-68
2022/01/19 12:53:11;;;;;;;30.58;17.88;;;;;;;4.86;73.97;101874.19;5099760;27;20862;-69
2022/01/19 12:55:42;;;;;;;33.10;18.88;;;;;;;4.71;75.22;101872.41;5059841;28;20147;-71
2022/01/19 12:58:12;;;;;;;29.45;17.77;;;;;;;4.84;73.95;101864.66;5082428;28;20037;-69
2022/01/19 13:00:39;;;;;;;32.78;18.58;;;;;;;4.83;74.05;101863.84;5079060;28;20111;-69
2022/01/19 13:03:26;;;;;;;29.95;17.25;;;;;;;4.80;74.21;101856.13;5074163;28;20040;-69
2022/01/19 13:05:57;;;;;;;33.50;18.42;;;;;;;4.91;73.76;101842.34;5085324;28;20128;-69
2022/01/19 13:08:28;;;;;;;29.98;17.17;;;;;;;4.95;73.74;101839.44;5096339;28;20044;-69
2022/01/19 13:11:02;;;;;;;35.65;17.58;;;;;;;4.75;74.21;101834.53;5084622;28;20052;-70
2022/01/19 13:13:29;;;;;;;34.97;17.90;;;;;;;4.82;74.24;101841.13;5080630;28;20483;-70
2022/01/19 13:15:59;;;;;;;33.13;16.73;;;;;;;4.82;74.05;101841.13;5078553;28;20052;-69
2022/01/19 13:18:36;;;;;;;39.45;19.17;;;;;;;4.91;73.97;101835.31;5080934;28;20091;-69
2022/01/19 13:21:06;;;;;;;35.30;18.70;;;;;;;4.90;74.04;101838.03;5064971;28;20404;-69
2022/01/19 13:23:37;;;;;;;32.63;17.85;;;;;;;5.02;73.58;101841.72;5081665;28;20079;-68
2022/01/19 13:26:06;;;;;;;33.95;18.55;;;;;;;4.75;74.28;101839.78;5081595;28;20047;-69
2022/01/19 13:28:34;;;;;;;31.20;17.35;;;;;;;4.76;74.47;101830.94;5064327;28;21615;-68
2022/01/19 13:31:18;;;;;;;26.83;13.85;;;;;;;4.70;74.89;101824.28;5077252;28;20094;-68